sensor_id;sensor_type;location;lat;lon;timestamp;pressure;altitude;pressure_sealevel;temperature;humidity
6514;BME280;3290;47.716;9.070;2023-04-01T00:00:58;95950.00;;;9.98;100.00
6514;BME280;3290;47.716;9.070;2023-04-01T00:03:24;95936.91;;;9.98;100.00
6514;BME280;3290;47.716;9.070;2023-04-01T00:05:51;95937.84;;;9.92;100.00
6514;BME280;3290;47.716;9.070;2023-04-01T00:08:16;95945.22;;;9.95;100.00
6514;BME280;3290;47.716;9.070;2023-04-01T00:10:42;95944.00;;;9.86;100.00
6514;BME280;3290;47.716;9.070;2023-04-01T00:13:08;95945.00;;;9.85;100.00
6514;BME280;3290;47.716;9.070;2023-04-01T00:15:34;95940.22;;;9.93;100.00
6514;BME280;3290;47.716;9.070;2023-04-01T00:17:59;95945.22;;;9.83;100.00
6514;BME280;3290;47.716;9.070;2023-04-01T00:20:26;95947.91;;;9.72;100.00
6514;BME280;3290;47.716;9.070;2023-04-01T00:22:51;95941.06;;;9.71;100.00
6514;BME280;3290;47.716;9.070;2023-04-01T00:25:17;95944.50;;;9.60;100.00
6514;BME280;3290;47.716;9.070;2023-04-01T00:27:42;95943.72;;;9.59;100.00
6514;BME280;3290;47.716;9.070;2023-04-01T00:30:08;95954.88;;;9.55;100.00
6514;BME280;3290;47.716;9.070;2023-04-01T00:32:34;95952.75;;;9.52;100.00
6514;BME280;3290;47.716;9.070;2023-04-01T00:35:00;95957.16;;;9.52;100.00
6514;BME280;3290;47.716;9.070;2023-04-01T00:37:27;95955.81;;;9.38;100.00
6514;BME280;3290;47.716;9.070;2023-04-01T00:39:52;95968.19;;;9.42;100.00
6514;BME280;3290;47.716;9.070;2023-04-01T00:42:18;95963.25;;;9.29;100.00
6514;BME280;3290;47.716;9.070;2023-04-01T00:44:47;95971.63;;;9.31;100.00
6514;BME280;3290;47.716;9.070;2023-04-01T00:47:15;95972.69;;;9.19;100.00
6514;BME280;3290;47.716;9.070;2023-04-01T00:49:47;95967.97;;;9.32;100.00
6514;BME280;3290;47.716;9.070;2023-04-01T00:52:16;95969.25;;;9.30;100.00
6514;BME280;3290;47.716;9.070;2023-04-01T00:54:46;95969.00;;;9.43;100.00
6514;BME280;3290;47.716;9.070;2023-04-01T00:57:22;95956.16;;;9.41;100.00
6514;BME280;3290;47.716;9.070;2023-04-01T00:59:51;95964.91;;;9.35;100.00
6514;BME280;3290;47.716;9.070;2023-04-01T01:02:18;95971.41;;;9.21;100.00
6514;BME280;3290;47.716;9.070;2023-04-01T01:04:43;95959.81;;;9.40;100.00
6514;BME280;3290;47.716;9.070;2023-04-01T01:07:27;95960.13;;;9.44;100.00
6514;BME280;3290;47.716;9.070;2023-04-01T01:10:16;95967.56;;;9.24;100.00
6514;BME280;3290;47.716;9.070;2023-04-01T01:13:16;95956.84;;;9.25;100.00
6514;BME280;3290;47.716;9.070;2023-04-01T01:21:45;95960.97;;;9.21;100.00
6514;BME280;3290;47.716;9.070;2023-04-01T01:27:17;95951.66;;;9.03;100.00
6514;BME280;3290;47.716;9.070;2023-04-01T01:37:46;95929.34;;;9.34;100.00
6514;BME280;3290;47.716;9.070;2023-04-01T01:40:16;95925.19;;;8.99;100.00
6514;BME280;3290;47.716;9.070;2023-04-01T01:42:46;95925.53;;;9.03;100.00
6514;BME280;3290;47.716;9.070;2023-04-01T01:45:14;95928.38;;;9.13;100.00
6514;BME280;3290;47.716;9.070;2023-04-01T01:47:44;95919.03;;;9.17;100.00
6514;BME280;3290;47.716;9.070;2023-04-01T01:50:11;95924.97;;;9.12;100.00
6514;BME280;3290;47.716;9.070;2023-04-01T01:52:37;95917.56;;;9.20;100.00
6514;BME280;3290;47.716;9.070;2023-04-01T01:55:03;95910.53;;;9.21;100.00
6514;BME280;3290;47.716;9.070;2023-04-01T01:57:33;95900.84;;;9.33;100.00
6514;BME280;3290;47.716;9.070;2023-04-01T02:00:05;95903.81;;;9.25;100.00
6514;BME280;3290;47.716;9.070;2023-04-01T02:02:45;95912.44;;;9.25;100.00
6514;BME280;3290;47.716;9.070;2023-04-01T02:05:16;95912.97;;;9.39;100.00
6514;BME280;3290;47.716;9.070;2023-04-01T02:07:47;95901.84;;;9.43;100.00
6514;BME280;3290;47.716;9.070;2023-04-01T02:10:14;95903.63;;;9.54;100.00
6514;BME280;3290;47.716;9.070;2023-04-01T02:12:42;95900.81;;;9.44;100.00
6514;BME280;3290;47.716;9.070;2023-04-01T02:15:12;95907.97;;;9.37;100.00
6514;BME280;3290;47.716;9.070;2023-04-01T02:17:45;95912.47;;;9.53;100.00
6514;BME280;3290;47.716;9.070;2023-04-01T02:20:20;95911.09;;;9.62;100.00
6514;BME280;3290;47.716;9.070;2023-04-01T02:22:50;95901.34;;;9.46;100.00
6514;BME280;3290;47.716;9.070;2023-04-01T02:25:20;95903.63;;;9.54;100.00
6514;BME280;3290;47.716;9.070;2023-04-01T02:27:47;95911.13;;;9.51;100.00
6514;BME280;3290;47.716;9.070;2023-04-01T02:30:14;95921.75;;;9.33;100.00
6514;BME280;3290;47.716;9.070;2023-04-01T02:32:40;95904.13;;;9.28;100.00
6514;BME280;3290;47.716;9.070;2023-04-01T02:35:11;95904.63;;;9.53;100.00
6514;BME280;3290;47.716;9.070;2023-04-01T02:37:38;95917.97;;;9.40;100.00
6514;BME280;3290;47.716;9.070;2023-04-01T02:40:08;95909.47;;;9.33;100.00
6514;BME280;3290;47.716;9.070;2023-04-01T02:42:34;95916.03;;;9.36;100.00
6514;BME280;3290;47.716;9.070;2023-04-01T02:44:59;95917.09;;;9.23;100.00
6514;BME280;3290;47.716;9.070;2023-04-01T02:47:25;95912.53;;;9.30;100.00
6514;BME280;3290;47.716;9.070;2023-04-01T02:49:50;95909.03;;;9.25;100.00
6514;BME280;3290;47.716;9.070;2023-04-01T02:52:16;95912.53;;;9.30;100.00
6514;BME280;3290;47.716;9.070;2023-04-01T02:54:41;95917.56;;;9.20;100.00
6514;BME280;3290;47.716;9.070;2023-04-01T02:57:06;95910.91;;;9.41;100.00
6514;BME280;3290;47.716;9.070;2023-04-01T02:59:32;95907.28;;;9.42;100.00
6514;BME280;3290;47.716;9.070;2023-04-01T03:01:58;95906.13;;;9.49;100.00
6514;BME280;3290;47.716;9.070;2023-04-01T03:04:23;95911.19;;;9.67;100.00
6514;BME280;3290;47.716;9.070;2023-04-01T03:06:48;95905.59;;;9.36;100.00
6514;BME280;3290;47.716;9.070;2023-04-01T03:09:14;95909.19;;;9.57;100.00
6514;BME280;3290;47.716;9.070;2023-04-01T03:11:39;95914.88;;;9.55;100.00
6514;BME280;3290;47.716;9.070;2023-04-01T03:14:05;95901.34;;;9.46;100.00
6514;BME280;3290;47.716;9.070;2023-04-01T03:16:32;95903.75;;;9.48;100.00
6514;BME280;3290;47.716;9.070;2023-04-01T03:18:57;95908.63;;;9.44;100.00
6514;BME280;3290;47.716;9.070;2023-04-01T03:21:25;95903.06;;;9.52;100.00
6514;BME280;3290;47.716;9.070;2023-04-01T03:23:51;95911.16;;;9.39;100.00
6514;BME280;3290;47.716;9.070;2023-04-01T03:26:16;95900.44;;;9.52;100.00
6514;BME280;3290;47.716;9.070;2023-04-01T03:28:42;95903.28;;;9.51;100.00
6514;BME280;3290;47.716;9.070;2023-04-01T03:31:08;95909.50;;;9.61;100.00
6514;BME280;3290;47.716;9.070;2023-04-01T03:33:33;95911.03;;;9.34;100.00
6514;BME280;3290;47.716;9.070;2023-04-01T03:35:59;95915.31;;;9.63;100.00
6514;BME280;3290;47.716;9.070;2023-04-01T03:38:24;95904.63;;;9.53;100.00
6514;BME280;3290;47.716;9.070;2023-04-01T03:40:50;95911.09;;;9.62;100.00
6514;BME280;3290;47.716;9.070;2023-04-01T03:43:15;95907.91;;;9.60;98.71
6514;BME280;3290;47.716;9.070;2023-04-01T03:45:45;95908.13;;;9.70;99.41
6514;BME280;3290;47.716;9.070;2023-04-01T03:48:10;95912.47;;;9.53;98.62
6514;BME280;3290;47.716;9.070;2023-04-01T03:50:36;95904.63;;;9.64;99.13
6514;BME280;3290;47.716;9.070;2023-04-01T03:53:01;95905.66;;;9.80;97.03
6514;BME280;3290;47.716;9.070;2023-04-01T03:55:27;95890.00;;;9.52;96.51
6514;BME280;3290;47.716;9.070;2023-04-01T03:57:52;95897.81;;;9.80;97.02
6514;BME280;3290;47.716;9.070;2023-04-01T04:00:17;95898.44;;;9.70;96.22
6514;BME280;3290;47.716;9.070;2023-04-01T04:02:43;95891.34;;;9.82;95.87
6514;BME280;3290;47.716;9.070;2023-04-01T04:05:08;95894.06;;;9.87;97.68
6514;BME280;3290;47.716;9.070;2023-04-01T04:07:35;95894.19;;;9.53;96.99
6514;BME280;3290;47.716;9.070;2023-04-01T04:10:00;95905.19;;;9.55;97.13
6514;BME280;3290;47.716;9.070;2023-04-01T04:12:26;95895.59;;;9.72;96.71
6514;BME280;3290;47.716;9.070;2023-04-01T04:14:51;95905.53;;;9.58;96.74
6514;BME280;3290;47.716;9.070;2023-04-01T04:17:16;95905.75;;;9.57;96.57
6514;BME280;3290;47.716;9.070;2023-04-01T04:19:42;95900.16;;;9.65;97.66
6514;BME280;3290;47.716;9.070;2023-04-01T04:22:07;95914.50;;;9.62;97.35
6514;BME280;3290;47.716;9.070;2023-04-01T04:24:36;95923.03;;;9.58;96.66
6514;BME280;3290;47.716;9.070;2023-04-01T04:27:02;95917.47;;;9.66;98.07
6514;BME280;3290;47.716;9.070;2023-04-01T04:29:28;95923.38;;;9.61;98.29
6514;BME280;3290;47.716;9.070;2023-04-01T04:31:53;95922.34;;;9.62;99.57
6514;BME280;3290;47.716;9.070;2023-04-01T04:34:19;95928.72;;;9.55;99.47
6514;BME280;3290;47.716;9.070;2023-04-01T04:36:44;95937.44;;;9.72;98.22
6514;BME280;3290;47.716;9.070;2023-04-01T04:39:10;95930.44;;;9.61;99.80
6514;BME280;3290;47.716;9.070;2023-04-01T04:41:37;95935.44;;;9.51;100.00
6514;BME280;3290;47.716;9.070;2023-04-01T04:44:03;95934.13;;;9.37;100.00
6514;BME280;3290;47.716;9.070;2023-04-01T04:46:28;95934.56;;;9.34;99.92
6514;BME280;3290;47.716;9.070;2023-04-01T04:48:54;95935.94;;;9.37;100.00
6514;BME280;3290;47.716;9.070;2023-04-01T04:51:20;95936.22;;;9.01;100.00
6514;BME280;3290;47.716;9.070;2023-04-01T04:53:47;95943.00;;;9.25;100.00
6514;BME280;3290;47.716;9.070;2023-04-01T04:56:13;95937.91;;;9.07;100.00
6514;BME280;3290;47.716;9.070;2023-04-01T04:58:39;95936.31;;;9.18;100.00
6514;BME280;3290;47.716;9.070;2023-04-01T05:01:09;95942.34;;;9.07;100.00
6514;BME280;3290;47.716;9.070;2023-04-01T05:03:36;95946.31;;;9.20;100.00
6514;BME280;3290;47.716;9.070;2023-04-01T05:06:01;95940.19;;;9.04;100.00
6514;BME280;3290;47.716;9.070;2023-04-01T05:08:26;95940.09;;;9.10;100.00
6514;BME280;3290;47.716;9.070;2023-04-01T05:10:52;95930.38;;;9.33;100.00
6514;BME280;3290;47.716;9.070;2023-04-01T05:13:17;95929.59;;;9.21;100.00
6514;BME280;3290;47.716;9.070;2023-04-01T05:15:43;95927.03;;;9.10;100.00
6514;BME280;3290;47.716;9.070;2023-04-01T05:18:08;95931.91;;;9.07;100.00
6514;BME280;3290;47.716;9.070;2023-04-01T05:20:33;95937.81;;;9.14;100.00
6514;BME280;3290;47.716;9.070;2023-04-01T05:22:59;95944.38;;;9.27;100.00
6514;BME280;3290;47.716;9.070;2023-04-01T05:25:25;95930.97;;;9.13;100.00
6514;BME280;3290;47.716;9.070;2023-04-01T05:27:50;95935.28;;;9.18;100.00
6514;BME280;3290;47.716;9.070;2023-04-01T05:30:16;95937.00;;;9.02;100.00
6514;BME280;3290;47.716;9.070;2023-04-01T05:32:41;95933.72;;;9.18;100.00
6514;BME280;3290;47.716;9.070;2023-04-01T05:35:08;95944.69;;;9.42;100.00
6514;BME280;3290;47.716;9.070;2023-04-01T05:37:37;95950.41;;;9.28;100.00
6514;BME280;3290;47.716;9.070;2023-04-01T05:40:03;95953.00;;;9.17;100.00
6514;BME280;3290;47.716;9.070;2023-04-01T05:42:29;95947.06;;;9.32;100.00
6514;BME280;3290;47.716;9.070;2023-04-01T05:44:54;95941.50;;;9.29;100.00
6514;BME280;3290;47.716;9.070;2023-04-01T05:47:21;95941.88;;;9.10;100.00
6514;BME280;3290;47.716;9.070;2023-04-01T05:49:46;95950.25;;;9.34;100.00
6514;BME280;3290;47.716;9.070;2023-04-01T05:52:11;95953.22;;;9.26;100.00
6514;BME280;3290;47.716;9.070;2023-04-01T05:54:37;95945.72;;;9.18;100.00
6514;BME280;3290;47.716;9.070;2023-04-01T05:57:02;95947.22;;;9.26;100.00
6514;BME280;3290;47.716;9.070;2023-04-01T05:59:28;95940.06;;;9.21;100.00
6514;BME280;3290;47.716;9.070;2023-04-01T06:01:53;95946.88;;;9.22;100.00
6514;BME280;3290;47.716;9.070;2023-04-01T06:04:19;95943.38;;;9.17;100.00
6514;BME280;3290;47.716;9.070;2023-04-01T06:06:45;95937.19;;;9.34;100.00
6514;BME280;3290;47.716;9.070;2023-04-01T06:09:19;95944.28;;;9.22;100.00
6514;BME280;3290;47.716;9.070;2023-04-01T06:57:53;95950.56;;;9.99;95.83
6514;BME280;3290;47.716;9.070;2023-04-01T07:00:28;95948.50;;;10.01;95.96
6514;BME280;3290;47.716;9.070;2023-04-01T07:06:03;95947.84;;;9.95;97.28
6514;BME280;3290;47.716;9.070;2023-04-01T07:08:31;95951.94;;;10.18;97.32
6514;BME280;3290;47.716;9.070;2023-04-01T07:11:04;95943.75;;;10.15;96.99
6514;BME280;3290;47.716;9.070;2023-04-01T07:13:47;95942.97;;;10.14;96.34
6514;BME280;3290;47.716;9.070;2023-04-01T07:16:20;95930.81;;;10.36;95.74
6514;BME280;3290;47.716;9.070;2023-04-01T07:19:21;95922.84;;;10.31;93.59
6514;BME280;3290;47.716;9.070;2023-04-01T07:21:52;95923.63;;;10.15;93.91
6514;BME280;3290;47.716;9.070;2023-04-01T07:24:31;95925.06;;;10.23;93.28
6514;BME280;3290;47.716;9.070;2023-04-01T07:26:58;95918.56;;;10.25;93.75
6514;BME280;3290;47.716;9.070;2023-04-01T07:29:24;95922.38;;;10.34;94.18
6514;BME280;3290;47.716;9.070;2023-04-01T07:34:44;95932.69;;;10.24;94.12
6514;BME280;3290;47.716;9.070;2023-04-01T07:37:55;95941.28;;;10.36;93.76
6514;BME280;3290;47.716;9.070;2023-04-01T07:40:39;95935.09;;;10.42;93.10
6514;BME280;3290;47.716;9.070;2023-04-01T07:45:49;95931.41;;;10.27;93.99
6514;BME280;3290;47.716;9.070;2023-04-01T07:48:42;95931.81;;;10.51;93.88
6514;BME280;3290;47.716;9.070;2023-04-01T07:51:19;95937.63;;;10.37;94.17
6514;BME280;3290;47.716;9.070;2023-04-01T07:54:13;95944.91;;;10.35;93.31
6514;BME280;3290;47.716;9.070;2023-04-01T07:57:06;95956.34;;;10.29;93.22
6514;BME280;3290;47.716;9.070;2023-04-01T08:03:20;95941.56;;;10.23;93.12
6514;BME280;3290;47.716;9.070;2023-04-01T08:05:54;95944.91;;;10.35;93.66
6514;BME280;3290;47.716;9.070;2023-04-01T08:14:00;95951.44;;;10.33;92.87
6514;BME280;3290;47.716;9.070;2023-04-01T08:16:50;95953.63;;;10.40;93.34
6514;BME280;3290;47.716;9.070;2023-04-01T08:22:15;95944.69;;;10.37;94.02
6514;BME280;3290;47.716;9.070;2023-04-01T08:24:44;95932.88;;;10.50;94.57
6514;BME280;3290;47.716;9.070;2023-04-01T08:27:51;95941.56;;;10.23;92.60
6514;BME280;3290;47.716;9.070;2023-04-01T08:30:28;95934.91;;;10.32;92.56
6514;BME280;3290;47.716;9.070;2023-04-01T08:33:04;95939.91;;;10.34;92.05
6514;BME280;3290;47.716;9.070;2023-04-01T08:35:36;95959.28;;;10.05;92.77
6514;BME280;3290;47.716;9.070;2023-04-01T08:38:33;95951.59;;;10.15;93.40
6514;BME280;3290;47.716;9.070;2023-04-01T08:41:05;95954.56;;;10.18;93.40
6514;BME280;3290;47.716;9.070;2023-04-01T08:43:54;95958.31;;;10.22;93.69
6514;BME280;3290;47.716;9.070;2023-04-01T08:46:48;95954.63;;;10.23;94.50
6514;BME280;3290;47.716;9.070;2023-04-01T08:54:43;95944.81;;;10.30;95.02
6514;BME280;3290;47.716;9.070;2023-04-01T09:00:05;95956.91;;;10.03;95.40
6514;BME280;3290;47.716;9.070;2023-04-01T09:05:21;95967.91;;;10.17;95.19
6514;BME280;3290;47.716;9.070;2023-04-01T09:19:11;95969.09;;;9.98;96.47
6514;BME280;3290;47.716;9.070;2023-04-01T09:25:02;95969.78;;;9.94;94.90
6514;BME280;3290;47.716;9.070;2023-04-01T09:30:27;95965.44;;;9.99;96.45
6514;BME280;3290;47.716;9.070;2023-04-01T09:36:02;95975.97;;;10.15;95.19
6514;BME280;3290;47.716;9.070;2023-04-01T09:39:30;95971.22;;;10.29;95.53
6514;BME280;3290;47.716;9.070;2023-04-01T09:41:35;95970.56;;;10.22;95.99
6514;BME280;3290;47.716;9.070;2023-04-01T09:47:25;95973.94;;;10.34;94.41
6514;BME280;3290;47.716;9.070;2023-04-01T10:15:29;95955.47;;;10.73;91.54
6514;BME280;3290;47.716;9.070;2023-04-01T10:35:14;95965.25;;;10.93;90.10
6514;BME280;3290;47.716;9.070;2023-04-01T10:43:22;95979.13;;;11.10;90.37
6514;BME280;3290;47.716;9.070;2023-04-01T10:49:05;95983.59;;;10.93;90.90
6514;BME280;3290;47.716;9.070;2023-04-01T11:11:41;95965.25;;;11.10;90.13
6514;BME280;3290;47.716;9.070;2023-04-01T11:22:42;95956.72;;;11.19;86.81
6514;BME280;3290;47.716;9.070;2023-04-01T11:25:24;95960.97;;;11.41;87.98
6514;BME280;3290;47.716;9.070;2023-04-01T11:33:36;95947.28;;;11.56;85.76
6514;BME280;3290;47.716;9.070;2023-04-01T11:44:29;95957.94;;;12.13;80.74
6514;BME280;3290;47.716;9.070;2023-04-01T11:47:18;95957.16;;;11.91;82.25
6514;BME280;3290;47.716;9.070;2023-04-01T11:53:00;95947.88;;;11.84;81.47
6514;BME280;3290;47.716;9.070;2023-04-01T11:55:46;95952.88;;;11.85;83.11
6514;BME280;3290;47.716;9.070;2023-04-01T11:58:40;95959.09;;;11.79;81.38
6514;BME280;3290;47.716;9.070;2023-04-01T12:06:43;95951.50;;;12.25;79.88
6514;BME280;3290;47.716;9.070;2023-04-01T12:09:21;95953.88;;;12.53;79.75
6514;BME280;3290;47.716;9.070;2023-04-01T12:37:17;96009.06;;;11.47;86.54
6514;BME280;3290;47.716;9.070;2023-04-01T12:45:29;95989.19;;;11.93;83.41
6514;BME280;3290;47.716;9.070;2023-04-01T12:48:27;96002.44;;;11.82;80.38
6514;BME280;3290;47.716;9.070;2023-04-01T12:54:18;96002.00;;;11.68;83.58
6514;BME280;3290;47.716;9.070;2023-04-01T12:57:07;96001.75;;;11.70;85.29
6514;BME280;3290;47.716;9.070;2023-04-01T13:09:26;95991.78;;;11.88;84.99
6514;BME280;3290;47.716;9.070;2023-04-01T13:15:03;95980.97;;;12.06;84.59
6514;BME280;3290;47.716;9.070;2023-04-01T13:20:13;95991.19;;;11.86;84.45
6514;BME280;3290;47.716;9.070;2023-04-01T13:28:18;95999.59;;;11.83;84.22
6514;BME280;3290;47.716;9.070;2023-04-01T13:42:02;95984.19;;;11.70;84.30
6514;BME280;3290;47.716;9.070;2023-04-01T13:44:43;95993.59;;;11.66;85.27
6514;BME280;3290;47.716;9.070;2023-04-01T13:47:28;96001.97;;;11.85;84.47
6514;BME280;3290;47.716;9.070;2023-04-01T14:04:00;95996.28;;;11.71;89.93
6514;BME280;3290;47.716;9.070;2023-04-01T14:12:06;95992.00;;;11.65;87.85
6514;BME280;3290;47.716;9.070;2023-04-01T14:37:58;95971.97;;;12.54;86.10
6514;BME280;3290;47.716;9.070;2023-04-01T14:43:51;95981.16;;;12.26;86.93
6514;BME280;3290;47.716;9.070;2023-04-01T14:49:04;96001.44;;;12.09;90.62
6514;BME280;3290;47.716;9.070;2023-04-01T14:51:40;96007.16;;;11.80;94.40
6514;BME280;3290;47.716;9.070;2023-04-01T14:54:13;96007.69;;;11.60;94.36
6514;BME280;3290;47.716;9.070;2023-04-01T14:57:05;96009.22;;;11.78;96.24
6514;BME280;3290;47.716;9.070;2023-04-01T14:59:39;96003.31;;;11.87;96.06
6514;BME280;3290;47.716;9.070;2023-04-01T15:19:07;96008.84;;;11.91;88.39
6514;BME280;3290;47.716;9.070;2023-04-01T15:33:36;96021.91;;;11.64;88.04
6514;BME280;3290;47.716;9.070;2023-04-01T15:36:16;96019.50;;;11.63;88.30
6514;BME280;3290;47.716;9.070;2023-04-01T15:38:49;96014.75;;;11.60;88.85
6514;BME280;3290;47.716;9.070;2023-04-01T15:55:24;95982.91;;;11.73;88.54
6514;BME280;3290;47.716;9.070;2023-04-01T16:03:23;95981.81;;;11.69;87.43
6514;BME280;3290;47.716;9.070;2023-04-01T16:22:19;95996.28;;;11.71;86.35
6514;BME280;3290;47.716;9.070;2023-04-01T16:28:22;96002.28;;;11.88;83.98
6514;BME280;3290;47.716;9.070;2023-04-01T16:34:17;96000.13;;;11.85;84.47
6514;BME280;3290;47.716;9.070;2023-04-01T16:36:51;96000.38;;;11.84;85.04
6514;BME280;3290;47.716;9.070;2023-04-01T16:44:59;95996.81;;;11.95;83.00
6514;BME280;3290;47.716;9.070;2023-04-01T16:47:30;96004.59;;;12.06;83.98
6514;BME280;3290;47.716;9.070;2023-04-01T16:50:22;96012.25;;;11.91;83.73
6514;BME280;3290;47.716;9.070;2023-04-01T16:53:02;96002.66;;;12.23;84.67
6514;BME280;3290;47.716;9.070;2023-04-01T16:58:38;96006.59;;;12.20;82.81
6514;BME280;3290;47.716;9.070;2023-04-01T17:01:20;96003.44;;;12.44;83.09
6514;BME280;3290;47.716;9.070;2023-04-01T17:03:52;96008.06;;;12.11;83.24
6514;BME280;3290;47.716;9.070;2023-04-01T17:06:37;96011.66;;;12.27;83.16
6514;BME280;3290;47.716;9.070;2023-04-01T17:09:25;96021.59;;;12.25;82.72
6514;BME280;3290;47.716;9.070;2023-04-01T17:15:05;96028.75;;;12.08;83.15
6514;BME280;3290;47.716;9.070;2023-04-01T17:18:01;96027.69;;;12.09;83.84
6514;BME280;3290;47.716;9.070;2023-04-01T17:20:39;96024.44;;;12.44;83.41
6514;BME280;3290;47.716;9.070;2023-04-01T17:23:27;96034.72;;;12.25;83.05
6514;BME280;3290;47.716;9.070;2023-04-01T17:26:20;96035.03;;;12.28;83.56
6514;BME280;3290;47.716;9.070;2023-04-01T17:29:15;96038.53;;;12.34;83.28
6514;BME280;3290;47.716;9.070;2023-04-01T17:34:31;96045.97;;;11.99;84.83
6514;BME280;3290;47.716;9.070;2023-04-01T17:42:42;96062.50;;;11.99;84.28
6514;BME280;3290;47.716;9.070;2023-04-01T17:45:22;96056.78;;;11.81;84.31
6514;BME280;3290;47.716;9.070;2023-04-01T17:51:03;96059.09;;;11.78;82.30
6514;BME280;3290;47.716;9.070;2023-04-01T17:54:20;96055.19;;;11.80;82.07
6514;BME280;3290;47.716;9.070;2023-04-01T17:59:33;96051.78;;;11.63;84.46
6514;BME280;3290;47.716;9.070;2023-04-01T18:02:03;96056.56;;;11.66;85.59
6514;BME280;3290;47.716;9.070;2023-04-01T18:10:25;96063.72;;;11.55;86.17
6514;BME280;3290;47.716;9.070;2023-04-01T18:19:09;96083.13;;;11.54;88.08
6514;BME280;3290;47.716;9.070;2023-04-01T18:21:53;96074.22;;;11.55;87.79
6514;BME280;3290;47.716;9.070;2023-04-01T18:24:29;96077.56;;;11.50;88.63
6514;BME280;3290;47.716;9.070;2023-04-01T18:27:12;96074.38;;;11.32;90.21
6514;BME280;3290;47.716;9.070;2023-04-01T18:29:54;96074.38;;;11.32;90.38
6514;BME280;3290;47.716;9.070;2023-04-01T18:40:37;96075.16;;;11.16;92.07
6514;BME280;3290;47.716;9.070;2023-04-01T18:43:36;96079.28;;;11.12;92.76
6514;BME280;3290;47.716;9.070;2023-04-01T18:46:22;96082.00;;;11.17;93.38
6514;BME280;3290;47.716;9.070;2023-04-01T18:49:14;96092.41;;;11.12;93.76
6514;BME280;3290;47.716;9.070;2023-04-01T18:51:46;96103.13;;;11.11;92.77
6514;BME280;3290;47.716;9.070;2023-04-01T18:54:21;96100.25;;;11.12;93.97
6514;BME280;3290;47.716;9.070;2023-04-01T18:56:49;96102.25;;;11.05;92.73
6514;BME280;3290;47.716;9.070;2023-04-01T19:04:30;96118.53;;;11.07;93.49
6514;BME280;3290;47.716;9.070;2023-04-01T19:06:59;96122.75;;;11.08;93.98
6514;BME280;3290;47.716;9.070;2023-04-01T19:09:31;96120.28;;;11.02;93.53
6514;BME280;3290;47.716;9.070;2023-04-01T19:12:25;96119.81;;;11.21;92.87
6514;BME280;3290;47.716;9.070;2023-04-01T19:14:56;96126.94;;;11.09;93.15
6514;BME280;3290;47.716;9.070;2023-04-01T19:20:21;96132.91;;;11.05;93.68
6514;BME280;3290;47.716;9.070;2023-04-01T19:27:50;96136.31;;;11.05;93.48
6514;BME280;3290;47.716;9.070;2023-04-01T19:46:32;96135.97;;;10.85;92.50
6514;BME280;3290;47.716;9.070;2023-04-01T19:52:09;96143.53;;;10.71;93.08
6514;BME280;3290;47.716;9.070;2023-04-01T19:54:54;96157.91;;;10.68;93.43
6514;BME280;3290;47.716;9.070;2023-04-01T19:57:46;96153.25;;;10.86;93.90
6514;BME280;3290;47.716;9.070;2023-04-01T20:00:47;96155.88;;;10.86;92.50
6514;BME280;3290;47.716;9.070;2023-04-01T20:03:46;96159.13;;;11.05;91.36
6514;BME280;3290;47.716;9.070;2023-04-01T20:06:19;96158.00;;;10.73;92.10
6514;BME280;3290;47.716;9.070;2023-04-01T20:17:23;96161.81;;;10.66;91.95
6514;BME280;3290;47.716;9.070;2023-04-01T20:31:27;96161.16;;;10.47;95.47
6514;BME280;3290;47.716;9.070;2023-04-01T20:37:30;96177.19;;;10.62;95.04
6514;BME280;3290;47.716;9.070;2023-04-01T20:40:26;96181.59;;;10.62;96.63
6514;BME280;3290;47.716;9.070;2023-04-01T20:43:22;96180.03;;;10.61;96.01
6514;BME280;3290;47.716;9.070;2023-04-01T20:46:06;96178.97;;;10.73;94.75
6514;BME280;3290;47.716;9.070;2023-04-01T20:51:23;96183.47;;;10.50;95.00
6514;BME280;3290;47.716;9.070;2023-04-01T20:56:34;96191.22;;;10.45;94.89
6514;BME280;3290;47.716;9.070;2023-04-01T20:59:22;96188.25;;;10.53;95.17
6514;BME280;3290;47.716;9.070;2023-04-01T21:13:38;96201.47;;;10.35;96.78
6514;BME280;3290;47.716;9.070;2023-04-01T21:27:03;96200.69;;;10.35;98.65
6514;BME280;3290;47.716;9.070;2023-04-01T21:35:19;96216.97;;;10.25;99.27
6514;BME280;3290;47.716;9.070;2023-04-01T21:40:38;96212.84;;;10.52;97.37
6514;BME280;3290;47.716;9.070;2023-04-01T21:48:44;96219.09;;;10.51;97.35
6514;BME280;3290;47.716;9.070;2023-04-01T21:57:15;96232.66;;;10.48;96.89
6514;BME280;3290;47.716;9.070;2023-04-01T22:05:31;96247.81;;;10.46;97.34
6514;BME280;3290;47.716;9.070;2023-04-01T22:11:04;96244.50;;;10.39;97.62
6514;BME280;3290;47.716;9.070;2023-04-01T22:13:38;96251.94;;;10.08;98.81
6514;BME280;3290;47.716;9.070;2023-04-01T22:21:51;96253.16;;;10.28;97.38
6514;BME280;3290;47.716;9.070;2023-04-01T22:32:43;96260.97;;;9.83;99.26
6514;BME280;3290;47.716;9.070;2023-04-01T22:35:40;96267.38;;;9.98;98.95
6514;BME280;3290;47.716;9.070;2023-04-01T22:43:38;96269.09;;;9.93;99.18
6514;BME280;3290;47.716;9.070;2023-04-01T22:56:57;96274.25;;;9.70;100.00
6514;BME280;3290;47.716;9.070;2023-04-01T23:02:24;96282.41;;;9.62;100.00
6514;BME280;3290;47.716;9.070;2023-04-01T23:04:55;96281.06;;;9.71;100.00
6514;BME280;3290;47.716;9.070;2023-04-01T23:10:58;96285.50;;;9.70;97.22
6514;BME280;3290;47.716;9.070;2023-04-01T23:13:34;96284.44;;;9.60;98.18
6514;BME280;3290;47.716;9.070;2023-04-01T23:16:03;96276.47;;;9.55;97.68
6514;BME280;3290;47.716;9.070;2023-04-01T23:18:37;96280.50;;;9.69;97.18
6514;BME280;3290;47.716;9.070;2023-04-01T23:24:34;96265.78;;;9.45;99.69
6514;BME280;3290;47.716;9.070;2023-04-01T23:29:36;96280.22;;;9.48;98.80
6514;BME280;3290;47.716;9.070;2023-04-01T23:32:13;96280.91;;;9.43;98.86
6514;BME280;3290;47.716;9.070;2023-04-01T23:34:47;96284.09;;;9.57;98.92
6514;BME280;3290;47.716;9.070;2023-04-01T23:37:14;96291.25;;;9.50;98.66
6514;BME280;3290;47.716;9.070;2023-04-01T23:39:45;96296.53;;;9.61;98.22
6514;BME280;3290;47.716;9.070;2023-04-01T23:44:42;96297.03;;;9.81;95.41
6514;BME280;3290;47.716;9.070;2023-04-01T23:47:14;96292.44;;;9.76;96.54
6514;BME280;3290;47.716;9.070;2023-04-01T23:49:59;96304.50;;;10.06;95.87
6514;BME280;3290;47.716;9.070;2023-04-01T23:52:29;96301.41;;;10.09;96.17
6514;BME280;3290;47.716;9.070;2023-04-01T23:54:58;96299.50;;;9.76;96.92
6514;BME280;3290;47.716;9.070;2023-04-01T23:57:30;96312.50;;;9.82;97.50
